createdAt,value
2022-07-29T00:00:17.077Z,17.93
2022-07-29T00:06:19.144Z,18.05
2022-07-29T00:12:25.382Z,17.85
2022-07-29T00:18:28.685Z,17.66
2022-07-29T00:24:32.338Z,17.57
2022-07-29T00:30:34.334Z,17.48
2022-07-29T00:36:36.297Z,17.44
2022-07-29T00:42:50.445Z,17.02
2022-07-29T00:48:52.425Z,16.87
2022-07-29T00:54:54.527Z,16.60
2022-07-29T01:00:56.581Z,16.33
2022-07-29T01:06:58.920Z,16.17
2022-07-29T01:13:03.238Z,16.05
2022-07-29T01:19:41.370Z,16.05
2022-07-29T01:26:23.167Z,15.95
2022-07-29T01:32:33.960Z,16.03
2022-07-29T01:38:39.173Z,16.07
2022-07-29T01:44:57.131Z,16.11
2022-07-29T01:51:27.315Z,16.14
2022-07-29T01:57:34.619Z,16.33
2022-07-29T02:03:39.273Z,16.31
2022-07-29T02:09:43.110Z,16.47
2022-07-29T02:15:47.375Z,16.52
2022-07-29T02:21:52.378Z,16.54
2022-07-29T02:27:56.176Z,16.46
2022-07-29T02:34:00.132Z,16.31
2022-07-29T02:40:02.825Z,16.20
2022-07-29T02:46:28.014Z,16.42
2022-07-29T02:52:50.080Z,16.43
2022-07-29T02:58:58.668Z,16.38
2022-07-29T03:05:02.837Z,16.49
2022-07-29T03:11:05.765Z,16.44
2022-07-29T03:17:08.409Z,16.55
2022-07-29T03:23:10.714Z,16.28
2022-07-29T03:29:13.515Z,16.24
2022-07-29T03:35:17.548Z,16.17
2022-07-29T03:41:22.316Z,16.06
2022-07-29T03:47:50.348Z,15.91
2022-07-29T03:53:51.062Z,15.91
2022-07-29T03:59:54.199Z,15.94
2022-07-29T04:06:00.998Z,16.07
2022-07-29T04:12:04.293Z,16.20
2022-07-29T04:18:06.995Z,16.34
2022-07-29T04:24:09.317Z,16.42
2022-07-29T04:30:11.595Z,16.36
2022-07-29T04:36:28.674Z,16.52
2022-07-29T04:42:31.608Z,16.69
2022-07-29T04:48:34.502Z,17.21
2022-07-29T04:54:36.470Z,17.04
2022-07-29T05:00:38.619Z,16.97
2022-07-29T05:06:40.574Z,17.15
2022-07-29T05:12:42.532Z,17.56
2022-07-29T05:18:44.540Z,17.91
2022-07-29T05:24:46.593Z,17.78
2022-07-29T05:30:49.378Z,18.17
2022-07-29T05:36:51.980Z,18.39
2022-07-29T05:42:53.969Z,18.58
2022-07-29T05:48:56.045Z,18.61
2022-07-29T05:54:58.453Z,19.00
2022-07-29T06:01:01.534Z,19.54
2022-07-29T06:07:03.658Z,20.18
2022-07-29T06:13:05.913Z,20.86
2022-07-29T06:19:08.034Z,21.25
2022-07-29T06:25:11.583Z,21.36
2022-07-29T06:31:13.651Z,21.47
2022-07-29T06:37:15.952Z,22.14
2022-07-29T06:43:17.989Z,22.33
2022-07-29T06:49:20.164Z,22.37
2022-07-29T06:55:25.071Z,22.47
2022-07-29T07:01:27.582Z,22.42
2022-07-29T07:07:29.647Z,22.45
2022-07-29T07:13:35.389Z,22.50
2022-07-29T07:19:38.862Z,22.59
2022-07-29T07:25:40.946Z,22.41
2022-07-29T07:31:43.068Z,22.22
2022-07-29T07:37:45.182Z,22.72
2022-07-29T07:43:47.197Z,23.20
2022-07-29T07:49:49.787Z,23.64
2022-07-29T08:02:13.829Z,24.63
2022-07-29T08:08:15.890Z,25.18
2022-07-29T08:14:18.289Z,25.80
2022-07-29T08:20:20.592Z,25.44
2022-07-29T08:26:23.644Z,25.76
2022-07-29T08:32:43.779Z,25.78
2022-07-29T08:38:47.742Z,26.23
2022-07-29T08:44:51.624Z,26.38
2022-07-29T08:50:57.965Z,26.13
2022-07-29T08:57:01.716Z,25.83
2022-07-29T09:03:06.417Z,25.95
2022-07-29T09:09:09.568Z,25.78
2022-07-29T09:15:11.626Z,25.53
2022-07-29T09:21:36.056Z,25.38
2022-07-29T09:27:38.132Z,25.95
2022-07-29T09:33:41.470Z,26.19
2022-07-29T09:39:47.243Z,25.68
2022-07-29T09:45:49.533Z,25.64
2022-07-29T09:52:07.421Z,25.47
2022-07-29T09:58:23.698Z,24.92
2022-07-29T10:04:37.988Z,24.81
2022-07-29T10:10:43.523Z,24.69
2022-07-29T10:16:45.748Z,24.37
2022-07-29T10:22:53.513Z,24.30
2022-07-29T10:28:57.035Z,24.10
2022-07-29T10:35:08.641Z,24.08
2022-07-29T10:41:31.996Z,24.22
2022-07-29T10:47:38.517Z,24.33
2022-07-29T10:53:54.091Z,24.27
2022-07-29T11:00:11.649Z,24.40
2022-07-29T11:06:14.401Z,24.55
2022-07-29T11:12:38.853Z,24.42
2022-07-29T11:19:26.298Z,24.72
2022-07-29T11:25:42.799Z,25.15
2022-07-29T11:31:58.252Z,25.26
2022-07-29T11:38:28.570Z,25.48
2022-07-29T11:51:48.517Z,26.81
2022-07-29T11:58:03.753Z,27.77
2022-07-29T12:04:07.817Z,27.76
2022-07-29T12:10:11.351Z,28.56
2022-07-29T12:16:14.699Z,28.78
2022-07-29T12:22:45.238Z,29.23
2022-07-29T12:28:48.242Z,29.75
2022-07-29T12:34:51.880Z,30.27
2022-07-29T12:40:56.273Z,30.37
2022-07-29T12:47:05.247Z,31.05
2022-07-29T12:53:14.690Z,33.26
2022-07-29T12:59:22.827Z,35.91
2022-07-29T13:05:25.476Z,36.86
2022-07-29T13:11:50.346Z,36.88
2022-07-29T13:17:52.425Z,37.17
2022-07-29T13:23:54.407Z,38.83
2022-07-29T13:29:59.278Z,40.12
2022-07-29T13:36:01.506Z,38.28
2022-07-29T13:42:05.894Z,36.49
2022-07-29T13:48:12.200Z,34.74
2022-07-29T13:54:14.207Z,33.33
2022-07-29T14:00:17.146Z,32.73
2022-07-29T14:06:19.123Z,31.68
2022-07-29T14:12:24.431Z,30.96
2022-07-29T14:18:26.412Z,30.71
2022-07-29T14:24:28.405Z,31.23
2022-07-29T14:30:31.273Z,31.31
2022-07-29T14:36:33.265Z,31.12
2022-07-29T14:42:35.580Z,31.70
2022-07-29T14:48:37.631Z,31.40
2022-07-29T14:54:39.622Z,30.76
2022-07-29T15:00:42.277Z,30.34
2022-07-29T15:06:44.833Z,30.16
2022-07-29T15:12:46.837Z,29.73
2022-07-29T15:18:48.826Z,29.43
2022-07-29T15:24:50.855Z,29.47
2022-07-29T15:30:53.884Z,30.12
2022-07-29T15:36:55.847Z,29.91
2022-07-29T15:43:01.623Z,30.13
2022-07-29T15:49:05.426Z,33.10
2022-07-29T15:55:08.050Z,34.67
2022-07-29T16:01:10.369Z,35.20
2022-07-29T16:07:12.522Z,35.69
2022-07-29T16:13:18.741Z,37.17
2022-07-29T16:19:20.996Z,35.83
2022-07-29T16:25:38.395Z,33.80
2022-07-29T16:31:45.495Z,32.40
2022-07-29T16:37:47.559Z,31.49
2022-07-29T16:43:49.677Z,30.74
2022-07-29T16:49:52.018Z,30.45
2022-07-29T16:55:54.619Z,30.28
2022-07-29T17:01:56.813Z,30.26
2022-07-29T17:07:58.954Z,29.53
2022-07-29T17:14:01.708Z,29.05
2022-07-29T17:20:05.338Z,28.62
2022-07-29T17:26:07.294Z,28.28
2022-07-29T17:32:10.770Z,28.11
2022-07-29T17:38:12.874Z,28.03
2022-07-29T17:44:15.269Z,28.10
2022-07-29T17:50:17.258Z,27.64
2022-07-29T17:56:19.782Z,27.34
2022-07-29T18:02:21.871Z,27.11
2022-07-29T18:08:27.074Z,26.85
2022-07-29T18:14:29.054Z,26.59
2022-07-29T18:20:32.562Z,26.47
2022-07-29T18:26:34.575Z,26.16
2022-07-29T18:32:36.800Z,25.98
2022-07-29T18:38:42.223Z,25.84
2022-07-29T18:44:49.183Z,25.58
2022-07-29T18:50:51.624Z,25.38
2022-07-29T18:56:53.670Z,25.23
2022-07-29T19:02:55.812Z,25.13
2022-07-29T19:08:57.915Z,24.96
2022-07-29T19:14:59.899Z,24.65
2022-07-29T19:21:01.884Z,24.55
2022-07-29T19:27:03.998Z,24.34
2022-07-29T19:33:06.087Z,24.02
2022-07-29T19:39:08.091Z,23.92
2022-07-29T19:45:11.194Z,23.83
2022-07-29T19:51:13.182Z,23.69
2022-07-29T19:57:16.038Z,23.65
2022-07-29T20:03:18.251Z,23.57
2022-07-29T20:09:20.537Z,23.47
2022-07-29T20:15:23.307Z,23.43
2022-07-29T20:21:26.795Z,23.55
2022-07-29T20:27:29.426Z,23.67
2022-07-29T20:33:31.404Z,23.64
2022-07-29T20:39:33.363Z,23.52
2022-07-29T20:45:37.157Z,23.50
2022-07-29T20:51:43.997Z,23.34
2022-07-29T20:57:46.182Z,23.07
2022-07-29T21:03:48.247Z,22.91
2022-07-29T21:09:51.005Z,22.95
2022-07-29T21:15:58.084Z,22.73
2022-07-29T21:22:00.529Z,22.28
2022-07-29T21:28:21.374Z,22.04
2022-07-29T21:34:24.550Z,21.88
2022-07-29T21:40:26.564Z,21.29
2022-07-29T21:46:28.688Z,21.27
2022-07-29T21:52:30.805Z,21.02
2022-07-29T21:58:33.594Z,21.11
2022-07-29T22:04:35.843Z,20.75
2022-07-29T22:10:38.135Z,20.48
2022-07-29T22:16:40.164Z,20.23
2022-07-29T22:22:42.370Z,19.95
2022-07-29T22:28:44.326Z,19.68
2022-07-29T22:34:46.736Z,19.64
2022-07-29T22:40:50.585Z,19.53
2022-07-29T22:46:52.906Z,19.57
2022-07-29T22:52:54.919Z,19.37
2022-07-29T22:58:57.027Z,19.45
2022-07-29T23:04:58.998Z,19.34
2022-07-29T23:11:01.011Z,19.30
2022-07-29T23:17:03.501Z,19.42
2022-07-29T23:23:06.164Z,19.27
2022-07-29T23:29:08.205Z,19.29
2022-07-29T23:35:10.408Z,19.25
2022-07-29T23:41:13.387Z,19.35
2022-07-29T23:47:15.340Z,19.47
2022-07-29T23:53:17.621Z,19.25
2022-07-29T23:59:19.734Z,19.18
